Time;durP1;ratioP1;P1;durP2;ratioP2;P2;SDS_P1;SDS_P2;PMS_P1;PMS_P2;Temp;Humidity;BMP_temperature;BMP_pressure;BME280_temperature;BME280_humidity;BME280_pressure;Samples;Min_cycle;Max_cycle;Signal;HPM_P1;HPM_P2
2021/01/11 00:05:34;;;;;;;19.95;9.18;;;-1.50;99.90;;;;;;21064833;28;20040;-79
2021/01/11 00:15:35;;;;;;;19.50;9.40;;;-1.50;99.90;;;;;;21066735;28;20040;-80
2021/01/11 00:25:36;;;;;;;21.73;10.05;;;-1.40;99.90;;;;;;21054254;28;20036;-78
2021/01/11 00:35:37;;;;;;;24.90;9.95;;;-1.40;99.90;;;;;;21079164;28;20052;-80
2021/01/11 00:45:37;;;;;;;19.27;9.35;;;-1.50;99.90;;;;;;21079249;28;20036;-82
2021/01/11 00:55:38;;;;;;;22.10;9.68;;;-1.50;99.90;;;;;;21100651;28;20028;-80
2021/01/11 01:05:46;;;;;;;18.35;8.55;;;-1.60;99.90;;;;;;21098286;22;20112;-78
2021/01/11 01:15:46;;;;;;;20.52;9.52;;;-1.60;99.90;;;;;;21101799;28;20036;-78
2021/01/11 01:25:47;;;;;;;20.58;8.50;;;-1.60;99.90;;;;;;21098388;28;20489;-78
2021/01/11 01:35:48;;;;;;;23.98;10.10;;;-1.60;99.90;;;;;;21092047;28;20494;-76
2021/01/11 01:45:49;;;;;;;22.15;10.35;;;-1.60;99.90;;;;;;21093461;28;20071;-77
2021/01/11 01:55:50;;;;;;;21.85;9.90;;;-1.60;99.90;;;;;;21092896;28;20485;-77
2021/01/11 02:05:51;;;;;;;21.77;10.40;;;-1.70;99.90;;;;;;21089801;28;20028;-77
2021/01/11 02:16:20;;;;;;;23.98;10.32;;;-1.70;99.90;;;;;;21089193;28;20031;-77
2021/01/11 02:26:23;;;;;;;22.35;10.30;;;-1.70;99.90;;;;;;21066819;28;20043;-77
2021/01/11 02:36:24;;;;;;;24.88;10.82;;;-1.80;99.90;;;;;;21089623;28;20545;-77
2021/01/11 02:46:25;;;;;;;22.92;10.77;;;-1.90;99.90;;;;;;21092433;28;20040;-77
2021/01/11 02:56:53;;;;;;;20.10;9.30;;;-1.90;99.90;;;;;;21090269;28;20039;-77
2021/01/11 03:07:02;;;;;;;22.42;10.07;;;-1.90;99.90;;;;;;21092542;28;20028;-77
2021/01/11 03:17:03;;;;;;;22.20;10.68;;;-1.90;99.90;;;;;;21093829;28;20498;-78
2021/01/11 03:27:04;;;;;;;24.25;10.10;;;-1.80;99.90;;;;;;21091655;28;20024;-77
2021/01/11 03:37:05;;;;;;;20.48;10.05;;;-1.90;99.90;;;;;;21090650;28;20047;-77
2021/01/11 03:47:06;;;;;;;29.52;10.25;;;-1.80;99.90;;;;;;21087069;28;20028;-77
2021/01/11 03:57:07;;;;;;;23.40;10.48;;;-1.90;99.90;;;;;;21082472;28;20032;-77
2021/01/11 04:07:07;;;;;;;22.45;10.32;;;-1.90;99.90;;;;;;21087789;28;20671;-77
2021/01/11 04:17:08;;;;;;;23.00;10.18;;;-1.80;99.90;;;;;;21067424;28;20046;-78
2021/01/11 04:27:09;;;;;;;20.65;9.98;;;-1.80;99.90;;;;;;21084108;28;20039;-76
2021/01/11 04:37:10;;;;;;;18.55;9.23;;;-1.90;99.90;;;;;;21025218;28;20554;-77
2021/01/11 04:47:12;;;;;;;21.20;10.05;;;-2.00;99.90;;;;;;20999901;28;20028;-78
2021/01/11 04:57:15;;;;;;;24.73;10.25;;;-2.10;99.90;;;;;;21002348;28;20032;-77
2021/01/11 05:07:21;;;;;;;20.25;10.48;;;-2.00;99.90;;;;;;21002280;28;20040;-77
2021/01/11 05:17:23;;;;;;;19.08;9.82;;;-2.00;99.90;;;;;;21027407;28;20525;-78
2021/01/11 05:27:24;;;;;;;27.60;10.88;;;-2.10;99.90;;;;;;21033361;28;20025;-78
2021/01/11 05:37:35;;;;;;;24.58;11.85;;;-2.10;99.90;;;;;;21012758;28;20127;-78
2021/01/11 05:47:52;;;;;;;;;;;-2.10;99.90;;;;;;21013489;28;20036;-76
2021/01/11 05:57:54;;;;;;;24.55;10.82;;;-2.20;99.90;;;;;;21029445;28;20400;-78
2021/01/11 06:07:56;;;;;;;29.48;12.43;;;-2.30;99.90;;;;;;21020564;28;20039;-78
2021/01/11 06:17:58;;;;;;;29.05;12.90;;;-2.50;99.90;;;;;;21100435;28;20136;-78
2021/01/11 06:28:08;;;;;;;20.75;9.60;;;-2.60;99.90;;;;;;21099539;28;20028;-77
2021/01/11 06:38:18;;;;;;;;;;;-2.70;99.90;;;;;;21106991;28;20700;-77
2021/01/11 06:48:20;;;;;;;23.85;10.50;;;-2.60;99.90;;;;;;21102187;28;19915;-77
2021/01/11 07:08:32;;;;;;;25.17;11.18;;;-2.70;99.90;;;;;;20911023;28;20045;-75
2021/01/11 07:18:40;;;;;;;21.67;10.50;;;-2.50;99.90;;;;;;20910680;28;20021;-76
2021/01/11 07:28:55;;;;;;;25.10;11.05;;;-2.50;99.90;;;;;;20910840;28;20490;-76
2021/01/11 07:39:13;;;;;;;72.15;26.42;;;-2.40;99.90;;;;;;20908882;28;20033;-76
2021/01/11 07:49:16;;;;;;;27.75;12.15;;;-2.40;99.90;;;;;;20908382;28;20163;-77
2021/01/11 07:59:17;;;;;;;29.77;13.52;;;-2.40;99.90;;;;;;20915823;28;20679;-75
2021/01/11 08:09:23;;;;;;;26.40;11.93;;;-2.40;99.90;;;;;;20991665;28;20487;-75
2021/01/11 08:19:24;;;;;;;29.23;13.07;;;-2.40;99.90;;;;;;20991624;28;20033;-76
2021/01/11 08:29:28;;;;;;;27.52;11.88;;;-2.30;99.90;;;;;;20991100;28;20542;-75
2021/01/11 08:39:29;;;;;;;24.83;11.25;;;-2.30;99.90;;;;;;20990252;28;20064;-76
2021/01/11 08:49:31;;;;;;;32.55;14.52;;;-2.30;99.90;;;;;;21001030;28;20282;-76
2021/01/11 08:59:31;;;;;;;28.83;12.80;;;-2.20;99.90;;;;;;21006037;28;20039;-76
2021/01/11 09:09:33;;;;;;;34.28;13.88;;;-2.40;99.90;;;;;;21004275;28;20044;-76
2021/01/11 09:19:34;;;;;;;32.05;13.90;;;-2.20;99.90;;;;;;21003271;28;20028;-76
2021/01/11 09:29:37;;;;;;;32.55;13.57;;;-2.00;99.90;;;;;;21002644;28;20040;-76
2021/01/11 09:39:38;;;;;;;28.55;11.93;;;-1.90;99.90;;;;;;21000495;28;20090;-75
2021/01/11 09:49:39;;;;;;;32.88;13.32;;;-1.90;99.90;;;;;;21000878;28;20032;-75
2021/01/11 09:59:40;;;;;;;35.08;15.85;;;-1.70;99.90;;;;;;20999094;28;20538;-76
2021/01/11 10:09:42;;;;;;;33.67;14.02;;;-1.60;99.90;;;;;;20998189;28;20032;-76
2021/01/11 10:19:42;;;;;;;36.70;13.10;;;-1.70;99.90;;;;;;20998554;28;20391;-76
2021/01/11 10:29:43;;;;;;;28.70;12.80;;;-1.80;99.90;;;;;;20997889;28;20028;-75
2021/01/11 10:39:44;;;;;;;37.88;18.15;;;-1.70;99.90;;;;;;20997080;28;20028;-75
2021/01/11 10:49:45;;;;;;;25.23;12.13;;;-1.50;99.90;;;;;;20994937;28;20034;-75
2021/01/11 10:59:46;;;;;;;29.48;13.57;;;-1.50;99.90;;;;;;20995086;28;20032;-75
2021/01/11 11:09:46;;;;;;;29.52;13.75;;;-1.50;99.90;;;;;;20993020;28;20028;-74
2021/01/11 11:19:47;;;;;;;31.33;12.95;;;-1.40;99.90;;;;;;20993648;28;20396;-75
2021/01/11 11:29:48;;;;;;;28.38;13.60;;;-1.80;99.90;;;;;;20992932;28;20030;-75
2021/01/11 11:39:49;;;;;;;31.35;13.75;;;-0.90;99.90;;;;;;20992368;28;20032;-75
2021/01/11 11:49:50;;;;;;;33.65;14.63;;;-0.90;99.90;;;;;;20991806;28;20127;-76
2021/01/11 11:59:51;;;;;;;35.67;14.07;;;-1.60;99.90;;;;;;20989842;28;20068;-75
2021/01/11 12:09:53;;;;;;;31.27;14.13;;;-1.70;99.90;;;;;;20990824;28;20488;-76
2021/01/11 12:19:54;;;;;;;29.60;13.43;;;-1.20;99.90;;;;;;20988203;28;20126;-75
2021/01/11 12:29:56;;;;;;;28.33;13.52;;;0.30;99.90;;;;;;20988383;28;20067;-75
2021/01/11 12:39:56;;;;;;;28.98;13.88;;;0.20;99.90;;;;;;20989759;28;20029;-75
2021/01/11 12:49:57;;;;;;;;;;;0.60;99.90;;;;;;20989650;28;20108;-75
2021/01/11 12:59:58;;;;;;;27.42;12.25;;;2.10;99.90;;;;;;21015674;22;19973;-82
2021/01/11 13:09:59;;;;;;;23.00;11.70;;;3.40;99.90;;;;;;21111977;28;20056;-82
2021/01/11 13:20:00;;;;;;;22.73;12.77;;;3.60;99.90;;;;;;21092821;28;20122;-81
2021/01/11 13:30:00;;;;;;;28.57;12.43;;;3.40;99.90;;;;;;21116355;28;20028;-84
2021/01/11 13:40:03;;;;;;;26.17;13.10;;;3.50;99.90;;;;;;21108479;28;20039;-84
2021/01/11 13:50:05;;;;;;;26.77;13.70;;;3.70;99.90;;;;;;21088379;28;20399;-82
2021/01/11 14:00:08;;;;;;;30.15;14.70;;;1.80;99.90;;;;;;21088454;28;20032;-84
2021/01/11 14:10:09;;;;;;;26.95;13.52;;;1.70;99.90;;;;;;21082110;28;20028;-83
2021/01/11 14:20:14;;;;;;;30.00;14.00;;;3.70;99.90;;;;;;21021239;28;20044;-82
2021/01/11 14:30:19;;;;;;;29.33;14.20;;;4.20;99.90;;;;;;21032714;28;20316;-81
2021/01/11 14:40:20;;;;;;;27.27;13.65;;;3.50;99.90;;;;;;21030642;28;20058;-82
2021/01/11 14:50:21;;;;;;;29.67;14.67;;;3.40;99.90;;;;;;21057609;28;20122;-82
2021/01/11 15:00:23;;;;;;;28.63;14.10;;;4.20;99.90;;;;;;21077545;28;20437;-83
2021/01/11 15:10:24;;;;;;;28.38;13.57;;;4.10;99.90;;;;;;21072794;28;20067;-81
2021/01/11 15:20:26;;;;;;;26.20;13.57;;;3.30;99.90;;;;;;21069632;28;20039;-82
2021/01/11 15:30:27;;;;;;;29.25;14.13;;;2.60;99.90;;;;;;21044414;28;20061;-81
2021/01/11 15:40:29;;;;;;;35.65;15.90;;;1.80;99.90;;;;;;21044609;28;20044;-81
2021/01/11 15:50:30;;;;;;;35.03;15.85;;;1.00;99.90;;;;;;21040625;28;20078;-81
2021/01/11 16:00:31;;;;;;;26.90;12.75;;;0.60;99.90;;;;;;21057521;28;20028;-82
2021/01/11 16:10:32;;;;;;;31.88;13.27;;;0.20;99.90;;;;;;21059580;28;20040;-82
2021/01/11 16:20:32;;;;;;;;;;;0.20;99.90;;;;;;21061884;28;20028;-80
2021/01/11 16:30:36;;;;;;;83.80;33.83;;;-1.00;99.90;;;;;;21018515;28;20195;-80
2021/01/11 16:40:37;;;;;;;38.17;16.75;;;-1.40;99.90;;;;;;21038157;28;20472;-80
2021/01/11 16:50:37;;;;;;;37.08;16.33;;;-2.20;99.90;;;;;;21017893;28;20381;-82
2021/01/11 17:00:38;;;;;;;42.08;15.43;;;-2.20;99.90;;;;;;21019732;28;20590;-80
2021/01/11 17:10:39;;;;;;;68.00;25.15;;;-2.40;99.90;;;;;;21009649;28;20043;-80
2021/01/11 17:20:42;;;;;;;33.38;15.90;;;-3.10;99.90;;;;;;20993650;28;20446;-80
2021/01/11 17:30:43;;;;;;;44.05;17.55;;;-3.30;99.90;;;;;;21080882;28;20094;-80
2021/01/11 17:40:44;;;;;;;33.20;14.13;;;-3.50;99.90;;;;;;21068817;28;20524;-81
2021/01/11 17:50:45;;;;;;;33.28;15.65;;;-3.40;99.90;;;;;;21067525;28;20036;-80
2021/01/11 18:00:46;;;;;;;35.42;15.07;;;-2.90;99.90;;;;;;21082817;28;20332;-79
2021/01/11 18:10:48;;;;;;;37.90;16.48;;;-2.70;99.90;;;;;;21048263;28;20543;-82
2021/01/11 18:20:49;;;;;;;35.63;14.70;;;-2.70;99.90;;;;;;21077786;28;20031;-79
2021/01/11 18:30:50;;;;;;;55.60;21.80;;;-2.70;99.90;;;;;;21151663;28;20051;-81
2021/01/11 18:40:51;;;;;;;45.22;18.42;;;-2.50;99.90;;;;;;21083884;28;20040;-81
2021/01/11 18:50:57;;;;;;;40.65;18.08;;;-2.50;99.90;;;;;;21070444;28;20039;-81
2021/01/11 19:00:58;;;;;;;43.90;18.08;;;-2.50;99.90;;;;;;21167487;28;20039;-81
2021/01/11 19:10:59;;;;;;;44.20;17.92;;;-2.40;99.90;;;;;;21098903;22;20066;-76
2021/01/11 19:21:00;;;;;;;54.63;21.48;;;-2.40;99.90;;;;;;21078007;28;20497;-77
2021/01/11 19:31:01;;;;;;;43.70;17.02;;;-2.80;99.90;;;;;;21078173;28;20369;-77
2021/01/11 19:41:02;;;;;;;39.63;17.48;;;-3.00;99.90;;;;;;21043151;28;20060;-77
2021/01/11 19:51:05;;;;;;;40.45;18.30;;;-3.20;99.90;;;;;;21045052;28;20074;-75
2021/01/11 20:01:06;;;;;;;39.55;17.63;;;-3.30;99.90;;;;;;21065388;28;20030;-76
2021/01/11 20:11:07;;;;;;;43.00;18.15;;;-3.20;99.90;;;;;;21074952;28;20119;-76
2021/01/11 20:21:09;;;;;;;40.80;17.90;;;-3.80;99.90;;;;;;21056031;28;20028;-75
2021/01/11 20:31:11;;;;;;;46.25;18.33;;;-3.70;99.90;;;;;;21073922;28;20040;-75
2021/01/11 20:41:11;;;;;;;46.28;19.10;;;-4.00;99.90;;;;;;21077390;28;20040;-75
2021/01/11 20:51:13;;;;;;;48.42;18.77;;;-4.20;99.90;;;;;;21070076;28;20085;-76
2021/01/11 21:01:14;;;;;;;42.58;18.73;;;-4.30;99.90;;;;;;21084668;28;20036;-76
2021/01/11 21:11:15;;;;;;;38.75;16.98;;;-4.10;99.90;;;;;;20969050;28;20398;-75
2021/01/11 21:21:42;;;;;;;49.30;20.13;;;-4.10;99.90;;;;;;20984464;28;20118;-76
2021/01/11 21:31:43;;;;;;;50.25;20.55;;;-3.90;99.90;;;;;;20999021;28;20136;-76
2021/01/11 21:41:45;;;;;;;41.38;18.60;;;-4.00;99.90;;;;;;21001846;28;20056;-74
2021/01/11 21:51:50;;;;;;;49.85;20.55;;;-3.90;99.90;;;;;;21001381;28;20024;-75
2021/01/11 22:01:51;;;;;;;45.70;19.45;;;-4.00;99.90;;;;;;21001422;28;20482;-75
2021/01/11 22:11:52;;;;;;;48.08;20.58;;;-3.90;99.90;;;;;;21000505;28;20063;-75
2021/01/11 22:21:54;;;;;;;46.13;19.35;;;-3.90;99.90;;;;;;21000045;28;20028;-76
2021/01/11 22:32:00;;;;;;;47.97;19.33;;;-4.00;99.90;;;;;;21000561;28;20025;-75
2021/01/11 22:42:01;;;;;;;48.80;19.48;;;-4.10;99.90;;;;;;20999669;28;20036;-76
2021/01/11 22:52:02;;;;;;;48.28;19.73;;;-4.10;99.90;;;;;;20997696;28;20035;-75
2021/01/11 23:02:03;;;;;;;46.90;20.40;;;-3.90;99.90;;;;;;20994859;28;20036;-75
2021/01/11 23:12:05;;;;;;;56.75;20.73;;;-3.70;99.90;;;;;;20976451;28;20039;-75
2021/01/11 23:22:06;;;;;;;49.38;20.35;;;-3.80;99.90;;;;;;20993720;28;20025;-76
2021/01/11 23:32:07;;;;;;;45.88;18.83;;;-4.00;99.90;;;;;;20993770;28;20033;-75
2021/01/11 23:42:18;;;;;;;49.60;19.65;;;-4.00;99.90;;;;;;20975003;28;20120;-75
2021/01/11 23:52:20;;;;;;;48.40;19.25;;;-4.00;99.90;;;;;;20992151;28;20058;-75
